sensor_id;sensor_type;location;lat;lon;timestamp;pressure;altitude;pressure_sealevel;temperature;humidity
70314;BME280;71040;47.526;18.986;2023-12-07T00:03:50;99527.09;;;11.75;61.80
70314;BME280;71040;47.526;18.986;2023-12-07T00:08:51;99529.72;;;11.75;62.11
70314;BME280;71040;47.526;18.986;2023-12-07T00:13:57;99526.09;;;11.77;61.87
70314;BME280;71040;47.526;18.986;2023-12-07T00:18:57;99528.66;;;11.79;62.01
70314;BME280;71040;47.526;18.986;2023-12-07T00:23:58;99528.56;;;11.80;61.76
70314;BME280;71040;47.526;18.986;2023-12-07T00:29:01;99536.34;;;11.82;61.80
70314;BME280;71040;47.526;18.986;2023-12-07T00:34:01;99537.13;;;11.84;61.94
70314;BME280;71040;47.526;18.986;2023-12-07T00:39:09;99531.63;;;11.88;61.82
70314;BME280;71040;47.526;18.986;2023-12-07T00:44:10;99533.22;;;11.91;61.69
70314;BME280;71040;47.526;18.986;2023-12-07T00:49:10;99529.69;;;11.92;61.54
70314;BME280;71040;47.526;18.986;2023-12-07T00:54:11;99532.16;;;11.95;61.58
70314;BME280;71040;47.526;18.986;2023-12-07T00:59:11;99535.53;;;11.97;61.49
70314;BME280;71040;47.526;18.986;2023-12-07T01:04:14;99537.16;;;12.00;61.35
70314;BME280;71040;47.526;18.986;2023-12-07T01:09:14;99527.59;;;11.99;61.45
70314;BME280;71040;47.526;18.986;2023-12-07T01:14:15;99521.53;;;11.98;61.76
70314;BME280;71040;47.526;18.986;2023-12-07T01:19:16;99518.81;;;12.00;61.62
70314;BME280;71040;47.526;18.986;2023-12-07T01:24:17;99521.31;;;12.01;61.48
70314;BME280;71040;47.526;18.986;2023-12-07T01:29:17;99517.13;;;11.99;61.45
70314;BME280;71040;47.526;18.986;2023-12-07T01:34:18;99515.25;;;12.01;61.72
70314;BME280;71040;47.526;18.986;2023-12-07T01:39:24;99515.16;;;12.02;61.53
70314;BME280;71040;47.526;18.986;2023-12-07T01:44:25;99511.88;;;11.99;61.57
70314;BME280;71040;47.526;18.986;2023-12-07T01:49:27;99511.13;;;11.96;61.81
70314;BME280;71040;47.526;18.986;2023-12-07T01:54:28;99508.34;;;12.00;61.73
70314;BME280;71040;47.526;18.986;2023-12-07T01:59:29;99521.31;;;12.01;61.84
70314;BME280;71040;47.526;18.986;2023-12-07T02:04:30;99519.56;;;12.02;61.46
70314;BME280;71040;47.526;18.986;2023-12-07T02:09:30;99515.16;;;12.02;61.43
70314;BME280;71040;47.526;18.986;2023-12-07T02:14:31;99515.94;;;12.04;61.61
70314;BME280;71040;47.526;18.986;2023-12-07T02:25:09;99508.75;;;12.08;61.55
70314;BME280;71040;47.526;18.986;2023-12-07T02:30:11;99502.75;;;12.06;61.30
70314;BME280;71040;47.526;18.986;2023-12-07T02:35:18;99507.91;;;12.07;61.34
70314;BME280;71040;47.526;18.986;2023-12-07T02:40:22;99511.38;;;12.08;61.63
70314;BME280;71040;47.526;18.986;2023-12-07T02:45:23;99516.47;;;12.11;61.34
70314;BME280;71040;47.526;18.986;2023-12-07T02:50:23;99524.22;;;12.12;61.51
70314;BME280;71040;47.526;18.986;2023-12-07T02:55:24;99516.28;;;12.14;61.44
70314;BME280;71040;47.526;18.986;2023-12-07T03:00:24;99522.34;;;12.14;61.39
70314;BME280;71040;47.526;18.986;2023-12-07T03:05:24;99522.19;;;12.17;61.19
70314;BME280;71040;47.526;18.986;2023-12-07T03:10:25;99529.91;;;12.20;61.16
70314;BME280;71040;47.526;18.986;2023-12-07T03:15:25;99533.19;;;12.24;61.10
70314;BME280;71040;47.526;18.986;2023-12-07T03:20:26;99538.53;;;12.22;61.04
70314;BME280;71040;47.526;18.986;2023-12-07T03:25:26;99541.81;;;12.26;60.88
70314;BME280;71040;47.526;18.986;2023-12-07T03:30:27;99538.34;;;12.25;61.22
70314;BME280;71040;47.526;18.986;2023-12-07T03:35:27;99539.47;;;12.21;61.15
70314;BME280;71040;47.526;18.986;2023-12-07T03:40:28;99544.78;;;12.20;61.23
70314;BME280;71040;47.526;18.986;2023-12-07T03:45:28;99544.69;;;12.21;61.31
70314;BME280;71040;47.526;18.986;2023-12-07T03:50:28;99545.53;;;12.22;61.06
70314;BME280;71040;47.526;18.986;2023-12-07T03:55:29;99555.25;;;12.20;60.91
70314;BME280;71040;47.526;18.986;2023-12-07T04:00:29;99549.84;;;12.23;61.18
70314;BME280;71040;47.526;18.986;2023-12-07T04:05:30;99556.75;;;12.24;61.26
70314;BME280;71040;47.526;18.986;2023-12-07T04:10:31;99557.97;;;12.18;61.34
70314;BME280;71040;47.526;18.986;2023-12-07T04:15:31;99557.28;;;12.15;61.37
70314;BME280;71040;47.526;18.986;2023-12-07T04:20:32;99567.69;;;12.16;61.38
70314;BME280;71040;47.526;18.986;2023-12-07T04:25:32;99564.28;;;12.14;61.54
70314;BME280;71040;47.526;18.986;2023-12-07T04:30:32;99572.00;;;12.17;61.33
70314;BME280;71040;47.526;18.986;2023-12-07T04:35:34;99577.06;;;12.20;61.34
70314;BME280;71040;47.526;18.986;2023-12-07T04:40:34;99581.47;;;12.20;61.28
70314;BME280;71040;47.526;18.986;2023-12-07T04:45:35;99590.94;;;12.22;61.17
70314;BME280;71040;47.526;18.986;2023-12-07T04:50:35;99586.78;;;12.18;61.21
70314;BME280;71040;47.526;18.986;2023-12-07T04:55:36;99599.72;;;12.21;61.31
70314;BME280;71040;47.526;18.986;2023-12-07T05:00:36;99598.97;;;12.19;61.36
70314;BME280;71040;47.526;18.986;2023-12-07T05:05:37;99606.81;;;12.19;61.41
70314;BME280;71040;47.526;18.986;2023-12-07T05:10:37;99615.63;;;12.18;61.18
70314;BME280;71040;47.526;18.986;2023-12-07T05:15:38;99616.69;;;12.14;61.57
70314;BME280;71040;47.526;18.986;2023-12-07T05:20:38;99621.34;;;12.09;61.76
70314;BME280;71040;47.526;18.986;2023-12-07T05:25:39;99622.13;;;12.11;61.80
70314;BME280;71040;47.526;18.986;2023-12-07T05:30:39;99633.25;;;12.15;61.50
70314;BME280;71040;47.526;18.986;2023-12-07T05:35:40;99631.41;;;12.17;61.42
70314;BME280;71040;47.526;18.986;2023-12-07T05:40:43;99638.19;;;12.21;61.57
70314;BME280;71040;47.526;18.986;2023-12-07T05:45:43;99635.66;;;12.19;61.44
70314;BME280;71040;47.526;18.986;2023-12-07T05:50:44;99640.75;;;12.22;61.45
70314;BME280;71040;47.526;18.986;2023-12-07T05:55:46;99647.75;;;12.22;61.30
70314;BME280;71040;47.526;18.986;2023-12-07T06:00:46;99656.47;;;12.22;61.29
70314;BME280;71040;47.526;18.986;2023-12-07T06:05:47;99653.06;;;12.20;61.48
70314;BME280;71040;47.526;18.986;2023-12-07T06:10:48;99654.84;;;12.20;61.57
70314;BME280;71040;47.526;18.986;2023-12-07T06:15:48;99656.34;;;12.24;61.26
70314;BME280;71040;47.526;18.986;2023-12-07T06:20:49;99667.63;;;12.26;61.39
70314;BME280;71040;47.526;18.986;2023-12-07T06:25:50;99661.78;;;12.21;61.31
70314;BME280;71040;47.526;18.986;2023-12-07T06:30:50;99673.03;;;12.23;61.41
70314;BME280;71040;47.526;18.986;2023-12-07T06:35:50;99668.81;;;12.20;61.29
70314;BME280;71040;47.526;18.986;2023-12-07T06:40:51;99688.06;;;12.19;61.62
70314;BME280;71040;47.526;18.986;2023-12-07T06:45:51;99684.59;;;12.19;61.42
70314;BME280;71040;47.526;18.986;2023-12-07T06:50:53;99694.38;;;12.15;61.57
70314;BME280;71040;47.526;18.986;2023-12-07T06:55:53;99698.13;;;12.11;61.84
70314;BME280;71040;47.526;18.986;2023-12-07T07:00:53;99702.66;;;12.08;61.76
70314;BME280;71040;47.526;18.986;2023-12-07T07:05:54;99701.72;;;12.09;62.02
70314;BME280;71040;47.526;18.986;2023-12-07T07:10:55;99707.81;;;12.09;61.71
70314;BME280;71040;47.526;18.986;2023-12-07T07:15:56;99715.69;;;12.09;61.60
70314;BME280;71040;47.526;18.986;2023-12-07T07:20:56;99722.44;;;12.13;61.67
70314;BME280;71040;47.526;18.986;2023-12-07T07:25:59;99718.81;;;12.16;61.48
70314;BME280;71040;47.526;18.986;2023-12-07T07:31:00;99723.38;;;12.12;61.84
70314;BME280;71040;47.526;18.986;2023-12-07T07:36:00;99718.31;;;12.09;61.89
70314;BME280;71040;47.526;18.986;2023-12-07T07:41:04;99732.31;;;12.08;61.89
70314;BME280;71040;47.526;18.986;2023-12-07T07:46:04;99726.16;;;12.09;61.94
70314;BME280;71040;47.526;18.986;2023-12-07T07:51:05;99737.31;;;12.13;61.86
70314;BME280;71040;47.526;18.986;2023-12-07T07:56:08;99742.47;;;12.14;61.59
70314;BME280;71040;47.526;18.986;2023-12-07T08:01:09;99750.13;;;12.19;61.66
70314;BME280;71040;47.526;18.986;2023-12-07T08:06:09;99747.50;;;12.19;61.61
70314;BME280;71040;47.526;18.986;2023-12-07T08:11:09;99750.91;;;12.21;61.66
70314;BME280;71040;47.526;18.986;2023-12-07T08:16:10;99754.28;;;12.23;61.70
70314;BME280;71040;47.526;18.986;2023-12-07T08:21:30;99751.56;;;12.24;61.53
70314;BME280;71040;47.526;18.986;2023-12-07T08:26:31;99756.81;;;12.24;61.44
70314;BME280;71040;47.526;18.986;2023-12-07T08:31:32;99752.41;;;12.25;61.60
70314;BME280;71040;47.526;18.986;2023-12-07T08:36:32;99761.91;;;12.27;61.49
70314;BME280;71040;47.526;18.986;2023-12-07T08:41:33;99751.47;;;12.26;61.39
70314;BME280;71040;47.526;18.986;2023-12-07T08:46:34;99758.50;;;12.25;61.67
70314;BME280;71040;47.526;18.986;2023-12-07T08:51:34;99758.44;;;12.27;61.66
70314;BME280;71040;47.526;18.986;2023-12-07T08:56:34;99767.06;;;12.29;61.68
70314;BME280;71040;47.526;18.986;2023-12-07T09:01:35;99757.50;;;12.28;61.70
70314;BME280;71040;47.526;18.986;2023-12-07T09:06:38;99756.81;;;12.24;61.39
70314;BME280;71040;47.526;18.986;2023-12-07T09:11:39;99762.22;;;12.21;61.57
70314;BME280;71040;47.526;18.986;2023-12-07T09:16:46;99768.06;;;12.26;61.42
70314;BME280;71040;47.526;18.986;2023-12-07T09:21:46;99759.44;;;12.24;61.72
70314;BME280;71040;47.526;18.986;2023-12-07T09:26:47;99755.81;;;12.27;61.57
70314;BME280;71040;47.526;18.986;2023-12-07T09:31:49;99752.34;;;12.26;61.56
70314;BME280;71040;47.526;18.986;2023-12-07T09:37:05;99752.41;;;12.25;61.71
70314;BME280;71040;47.526;18.986;2023-12-07T09:42:06;99758.56;;;12.24;62.04
70314;BME280;71040;47.526;18.986;2023-12-07T09:47:06;99746.56;;;12.20;62.06
70314;BME280;71040;47.526;18.986;2023-12-07T09:52:07;99755.09;;;12.23;61.86
70314;BME280;71040;47.526;18.986;2023-12-07T09:57:08;99751.66;;;12.23;61.89
70314;BME280;71040;47.526;18.986;2023-12-07T10:02:15;99748.09;;;12.24;61.97
70314;BME280;71040;47.526;18.986;2023-12-07T10:07:16;99752.34;;;12.26;62.03
70314;BME280;71040;47.526;18.986;2023-12-07T10:12:27;99751.34;;;12.29;61.91
70314;BME280;71040;47.526;18.986;2023-12-07T10:22:47;99749.34;;;12.34;61.72
70314;BME280;71040;47.526;18.986;2023-12-07T10:27:48;99756.16;;;12.37;61.82
70314;BME280;71040;47.526;18.986;2023-12-07T10:32:50;99755.50;;;12.33;61.94
70314;BME280;71040;47.526;18.986;2023-12-07T10:37:50;99761.75;;;12.30;61.90
70314;BME280;71040;47.526;18.986;2023-12-07T10:42:57;99748.78;;;12.27;62.03
70314;BME280;71040;47.526;18.986;2023-12-07T10:48:02;99751.19;;;12.32;61.79
70314;BME280;71040;47.526;18.986;2023-12-07T10:53:09;99758.97;;;12.33;62.09
70314;BME280;71040;47.526;18.986;2023-12-07T10:58:11;99764.13;;;12.35;61.83
70314;BME280;71040;47.526;18.986;2023-12-07T11:03:16;99766.66;;;12.37;61.75
70314;BME280;71040;47.526;18.986;2023-12-07T11:08:37;99763.03;;;12.39;61.66
70314;BME280;71040;47.526;18.986;2023-12-07T11:13:40;99769.91;;;12.42;61.86
70314;BME280;71040;47.526;18.986;2023-12-07T11:18:45;99776.00;;;12.42;61.48
70314;BME280;71040;47.526;18.986;2023-12-07T11:23:46;99782.09;;;12.43;61.75
70314;BME280;71040;47.526;18.986;2023-12-07T11:28:49;99779.31;;;12.46;61.64
70314;BME280;71040;47.526;18.986;2023-12-07T11:33:50;99774.88;;;12.46;61.55
70314;BME280;71040;47.526;18.986;2023-12-07T11:44:12;99769.66;;;12.46;61.75
70314;BME280;71040;47.526;18.986;2023-12-07T11:49:12;99769.75;;;12.45;61.62
70314;BME280;71040;47.526;18.986;2023-12-07T11:54:14;99766.94;;;12.48;61.73
70314;BME280;71040;47.526;18.986;2023-12-07T11:59:15;99765.03;;;12.51;61.54
70314;BME280;71040;47.526;18.986;2023-12-07T12:04:16;99776.28;;;12.53;61.68
70314;BME280;71040;47.526;18.986;2023-12-07T12:09:17;99778.91;;;12.53;61.76
70314;BME280;71040;47.526;18.986;2023-12-07T12:14:20;99779.75;;;12.54;61.60
70314;BME280;71040;47.526;18.986;2023-12-07T12:19:22;99783.06;;;12.57;61.54
70314;BME280;71040;47.526;18.986;2023-12-07T12:24:24;99778.84;;;12.55;61.76
70314;BME280;71040;47.526;18.986;2023-12-07T12:29:24;99790.16;;;12.55;61.56
70314;BME280;71040;47.526;18.986;2023-12-07T12:34:34;99784.00;;;12.56;61.75
70314;BME280;71040;47.526;18.986;2023-12-07T12:39:39;99805.66;;;12.60;61.67
70314;BME280;71040;47.526;18.986;2023-12-07T12:44:42;99796.94;;;12.59;61.68
70314;BME280;71040;47.526;18.986;2023-12-07T12:49:43;99804.66;;;12.62;61.54
70314;BME280;71040;47.526;18.986;2023-12-07T12:54:46;99807.25;;;12.62;61.73
70314;BME280;71040;47.526;18.986;2023-12-07T12:59:50;99809.88;;;12.62;61.51
70314;BME280;71040;47.526;18.986;2023-12-07T13:04:50;99805.56;;;12.61;61.57
70314;BME280;71040;47.526;18.986;2023-12-07T13:09:51;99809.97;;;12.61;61.66
70314;BME280;71040;47.526;18.986;2023-12-07T13:14:51;99819.78;;;12.57;61.84
70314;BME280;71040;47.526;18.986;2023-12-07T13:19:54;99820.72;;;12.56;61.66
70314;BME280;71040;47.526;18.986;2023-12-07T13:24:54;99819.69;;;12.59;61.70
70314;BME280;71040;47.526;18.986;2023-12-07T13:29:55;99822.22;;;12.60;61.75
70314;BME280;71040;47.526;18.986;2023-12-07T13:34:55;99824.78;;;12.62;61.72
70314;BME280;71040;47.526;18.986;2023-12-07T13:39:56;99833.56;;;12.61;61.51
70314;BME280;71040;47.526;18.986;2023-12-07T13:44:58;99835.88;;;12.67;61.55
70314;BME280;71040;47.526;18.986;2023-12-07T13:50:00;99834.84;;;12.69;61.55
70314;BME280;71040;47.526;18.986;2023-12-07T13:55:01;99835.88;;;12.67;61.53
70314;BME280;71040;47.526;18.986;2023-12-07T14:00:02;99848.81;;;12.70;61.45
70314;BME280;71040;47.526;18.986;2023-12-07T14:05:03;99851.38;;;12.72;61.40
70314;BME280;71040;47.526;18.986;2023-12-07T14:10:05;99860.78;;;12.76;61.45
70314;BME280;71040;47.526;18.986;2023-12-07T14:15:06;99865.81;;;12.80;61.28
70314;BME280;71040;47.526;18.986;2023-12-07T14:20:11;99870.94;;;12.82;61.16
70314;BME280;71040;47.526;18.986;2023-12-07T14:25:12;99875.28;;;12.83;61.07
70314;BME280;71040;47.526;18.986;2023-12-07T14:30:15;99884.69;;;12.87;61.09
70314;BME280;71040;47.526;18.986;2023-12-07T14:35:18;99894.34;;;12.86;60.93
70314;BME280;71040;47.526;18.986;2023-12-07T14:40:18;99898.72;;;12.86;61.19
70314;BME280;71040;47.526;18.986;2023-12-07T14:45:20;99896.97;;;12.86;61.07
70314;BME280;71040;47.526;18.986;2023-12-07T14:50:22;99906.59;;;12.86;61.16
70314;BME280;71040;47.526;18.986;2023-12-07T14:55:23;99914.56;;;12.84;61.24
70314;BME280;71040;47.526;18.986;2023-12-07T15:00:25;99919.78;;;12.84;61.04
70314;BME280;71040;47.526;18.986;2023-12-07T15:05:26;99920.56;;;12.86;61.11
70314;BME280;71040;47.526;18.986;2023-12-07T15:10:26;99926.59;;;12.88;61.13
70314;BME280;71040;47.526;18.986;2023-12-07T15:15:26;99934.13;;;12.94;60.91
70314;BME280;71040;47.526;18.986;2023-12-07T15:20:27;99932.44;;;12.93;60.92
70314;BME280;71040;47.526;18.986;2023-12-07T15:25:28;99942.72;;;12.98;60.97
70314;BME280;71040;47.526;18.986;2023-12-07T15:30:29;99948.09;;;12.95;61.08
70314;BME280;71040;47.526;18.986;2023-12-07T15:35:29;99953.34;;;12.95;60.96
70314;BME280;71040;47.526;18.986;2023-12-07T15:40:30;99947.09;;;12.97;60.93
70314;BME280;71040;47.526;18.986;2023-12-07T15:45:30;99951.34;;;13.00;60.82
70314;BME280;71040;47.526;18.986;2023-12-07T15:50:31;99952.28;;;12.99;60.85
70314;BME280;71040;47.526;18.986;2023-12-07T15:55:32;99965.56;;;12.96;60.98
70314;BME280;71040;47.526;18.986;2023-12-07T16:00:35;99972.44;;;12.98;61.02
70314;BME280;71040;47.526;18.986;2023-12-07T16:05:35;99977.53;;;13.01;60.76
70314;BME280;71040;47.526;18.986;2023-12-07T16:10:35;99981.13;;;12.82;58.87
70314;BME280;71040;47.526;18.986;2023-12-07T16:15:36;99993.47;;;11.70;59.45
70314;BME280;71040;47.526;18.986;2023-12-07T16:20:38;99986.44;;;10.93;63.14
70314;BME280;71040;47.526;18.986;2023-12-07T16:25:39;99992.84;;;10.43;65.52
70314;BME280;71040;47.526;18.986;2023-12-07T16:30:39;99996.63;;;10.13;66.73
70314;BME280;71040;47.526;18.986;2023-12-07T16:35:39;99996.63;;;9.91;67.85
70314;BME280;71040;47.526;18.986;2023-12-07T16:40:40;100000.69;;;9.75;68.51
70314;BME280;71040;47.526;18.986;2023-12-07T16:45:40;100008.97;;;9.63;69.05
70314;BME280;71040;47.526;18.986;2023-12-07T16:50:41;100017.25;;;9.51;69.25
70314;BME280;71040;47.526;18.986;2023-12-07T16:55:41;100013.38;;;9.37;69.82
70314;BME280;71040;47.526;18.986;2023-12-07T17:00:43;100023.19;;;9.31;70.09
70314;BME280;71040;47.526;18.986;2023-12-07T17:05:44;100026.06;;;9.23;70.18
70314;BME280;71040;47.526;18.986;2023-12-07T17:10:45;100046.28;;;9.17;70.48
70314;BME280;71040;47.526;18.986;2023-12-07T17:15:45;100044.75;;;9.11;70.42
70314;BME280;71040;47.526;18.986;2023-12-07T17:20:45;100038.84;;;9.06;70.75
70314;BME280;71040;47.526;18.986;2023-12-07T17:25:46;100053.00;;;8.99;70.80
70314;BME280;71040;47.526;18.986;2023-12-07T17:30:46;100053.94;;;8.96;70.81
70314;BME280;71040;47.526;18.986;2023-12-07T17:35:46;100047.13;;;8.92;70.88
70314;BME280;71040;47.526;18.986;2023-12-07T17:40:49;100043.88;;;8.86;70.94
70314;BME280;71040;47.526;18.986;2023-12-07T17:45:49;100046.56;;;8.83;70.89
70314;BME280;71040;47.526;18.986;2023-12-07T17:50:51;100048.41;;;8.79;71.09
70314;BME280;71040;47.526;18.986;2023-12-07T17:55:52;100057.25;;;8.75;71.17
70314;BME280;71040;47.526;18.986;2023-12-07T18:00:52;100047.81;;;8.71;71.30
70314;BME280;71040;47.526;18.986;2023-12-07T18:05:53;100047.91;;;8.68;71.19
70314;BME280;71040;47.526;18.986;2023-12-07T18:10:53;100054.16;;;8.64;71.13
70314;BME280;71040;47.526;18.986;2023-12-07T18:15:53;100059.50;;;8.59;71.31
70314;BME280;71040;47.526;18.986;2023-12-07T18:20:56;100063.97;;;8.54;71.36
70314;BME280;71040;47.526;18.986;2023-12-07T18:25:57;100077.94;;;8.53;71.43
70314;BME280;71040;47.526;18.986;2023-12-07T18:30:57;100083.16;;;8.53;71.67
70314;BME280;71040;47.526;18.986;2023-12-07T18:35:57;100074.66;;;8.47;71.75
70314;BME280;71040;47.526;18.986;2023-12-07T18:40:58;100073.84;;;8.45;71.74
70314;BME280;71040;47.526;18.986;2023-12-07T18:45:58;100084.38;;;8.42;71.69
70314;BME280;71040;47.526;18.986;2023-12-07T18:51:03;100072.38;;;8.36;71.85
70314;BME280;71040;47.526;18.986;2023-12-07T18:56:04;100081.88;;;8.39;71.74
70314;BME280;71040;47.526;18.986;2023-12-07T19:01:05;100080.19;;;8.36;71.68
70314;BME280;71040;47.526;18.986;2023-12-07T19:06:05;100065.59;;;8.30;71.74
70314;BME280;71040;47.526;18.986;2023-12-07T19:11:05;100073.44;;;8.29;71.86
70314;BME280;71040;47.526;18.986;2023-12-07T19:16:06;100077.81;;;8.28;71.99
70314;BME280;71040;47.526;18.986;2023-12-07T19:21:07;100077.03;;;8.25;71.94
70314;BME280;71040;47.526;18.986;2023-12-07T19:26:09;100081.50;;;8.20;72.10
70314;BME280;71040;47.526;18.986;2023-12-07T19:31:12;100075.44;;;8.19;72.17
70314;BME280;71040;47.526;18.986;2023-12-07T19:36:12;100085.03;;;8.19;72.21
70314;BME280;71040;47.526;18.986;2023-12-07T19:41:13;100074.75;;;8.14;72.08
70314;BME280;71040;47.526;18.986;2023-12-07T19:46:17;100090.41;;;8.13;72.48
70314;BME280;71040;47.526;18.986;2023-12-07T19:51:18;100095.66;;;8.11;72.37
70314;BME280;71040;47.526;18.986;2023-12-07T19:56:18;100100.09;;;8.08;72.41
70314;BME280;71040;47.526;18.986;2023-12-07T20:01:19;100089.75;;;8.06;72.44
70314;BME280;71040;47.526;18.986;2023-12-07T20:06:19;100102.81;;;8.05;72.26
70314;BME280;71040;47.526;18.986;2023-12-07T20:11:22;100110.66;;;8.03;72.40
70314;BME280;71040;47.526;18.986;2023-12-07T20:16:36;100107.25;;;8.01;72.36
70314;BME280;71040;47.526;18.986;2023-12-07T20:21:42;100099.50;;;7.98;72.43
70314;BME280;71040;47.526;18.986;2023-12-07T20:26:43;100099.50;;;7.98;72.48
70314;BME280;71040;47.526;18.986;2023-12-07T20:31:43;100104.84;;;7.95;72.42
70314;BME280;71040;47.526;18.986;2023-12-07T20:36:43;100112.66;;;7.95;72.50
70314;BME280;71040;47.526;18.986;2023-12-07T20:41:45;100128.38;;;7.90;72.54
70314;BME280;71040;47.526;18.986;2023-12-07T20:46:46;100141.41;;;7.90;72.59
70314;BME280;71040;47.526;18.986;2023-12-07T20:51:46;100146.63;;;7.89;72.68
70314;BME280;71040;47.526;18.986;2023-12-07T20:56:46;100137.16;;;7.86;72.50
70314;BME280;71040;47.526;18.986;2023-12-07T21:01:47;100135.53;;;7.84;72.38
70314;BME280;71040;47.526;18.986;2023-12-07T21:06:47;100138.97;;;7.84;72.65
70314;BME280;71040;47.526;18.986;2023-12-07T21:11:48;100139.06;;;7.81;72.70
70314;BME280;71040;47.526;18.986;2023-12-07T21:16:48;100151.22;;;7.81;72.59
70314;BME280;71040;47.526;18.986;2023-12-07T21:21:51;100148.66;;;7.79;72.67
70314;BME280;71040;47.526;18.986;2023-12-07T21:26:51;100157.34;;;7.78;72.88
70314;BME280;71040;47.526;18.986;2023-12-07T21:31:51;100153.97;;;7.75;72.62
70314;BME280;71040;47.526;18.986;2023-12-07T21:36:52;100158.38;;;7.73;72.54
70314;BME280;71040;47.526;18.986;2023-12-07T21:41:52;100167.94;;;7.72;72.63
70314;BME280;71040;47.526;18.986;2023-12-07T21:46:53;100166.22;;;7.71;72.62
70314;BME280;71040;47.526;18.986;2023-12-07T21:51:53;100167.13;;;7.70;72.79
70314;BME280;71040;47.526;18.986;2023-12-07T21:56:53;100159.41;;;7.66;72.67
70314;BME280;71040;47.526;18.986;2023-12-07T22:01:54;100162.88;;;7.66;73.21
70314;BME280;71040;47.526;18.986;2023-12-07T22:06:54;100160.28;;;7.66;73.23
70314;BME280;71040;47.526;18.986;2023-12-07T22:11:54;100157.72;;;7.64;73.22
70314;BME280;71040;47.526;18.986;2023-12-07T22:16:55;100169.91;;;7.62;73.06
70314;BME280;71040;47.526;18.986;2023-12-07T22:21:55;100169.16;;;7.59;73.15
70314;BME280;71040;47.526;18.986;2023-12-07T22:26:56;100161.34;;;7.59;73.21
70314;BME280;71040;47.526;18.986;2023-12-07T22:31:56;100144.16;;;7.52;73.33
70314;BME280;71040;47.526;18.986;2023-12-07T22:37:03;100155.34;;;7.55;73.20
70314;BME280;71040;47.526;18.986;2023-12-07T22:42:03;100128.47;;;7.55;73.41
70314;BME280;71040;47.526;18.986;2023-12-07T22:47:04;100126.81;;;7.52;73.29
70314;BME280;71040;47.526;18.986;2023-12-07T22:52:04;100129.41;;;7.52;73.34
70314;BME280;71040;47.526;18.986;2023-12-07T22:57:05;100128.66;;;7.49;73.71
70314;BME280;71040;47.526;18.986;2023-12-07T23:02:06;100146.88;;;7.49;73.58
70314;BME280;71040;47.526;18.986;2023-12-07T23:07:06;100130.41;;;7.48;73.26
70314;BME280;71040;47.526;18.986;2023-12-07T23:12:09;100140.00;;;7.46;73.20
70314;BME280;71040;47.526;18.986;2023-12-07T23:17:09;100129.66;;;7.43;73.63
70314;BME280;71040;47.526;18.986;2023-12-07T23:22:09;100133.09;;;7.44;73.58
70314;BME280;71040;47.526;18.986;2023-12-07T23:27:10;100127.91;;;7.44;73.80
70314;BME280;71040;47.526;18.986;2023-12-07T23:32:10;100120.16;;;7.41;73.47
70314;BME280;71040;47.526;18.986;2023-12-07T23:37:11;100113.25;;;7.40;73.32
70314;BME280;71040;47.526;18.986;2023-12-07T23:42:11;100108.06;;;7.40;73.30
70314;BME280;71040;47.526;18.986;2023-12-07T23:47:11;100095.13;;;7.38;73.60
70314;BME280;71040;47.526;18.986;2023-12-07T23:52:12;100098.63;;;7.37;73.51
70314;BME280;71040;47.526;18.986;2023-12-07T23:57:13;100105.56;;;7.37;73.41
